الصفحة الرئيسية
METAR-TAF:

METAR-TAF

مطار :

Ubon Ratchathani, تايلاند

دائرة عرض: 15-15N, خط طول: 104-52E, ارتفاع: 123 متر

مراقبة الطقس الحالي

تاريخ ووقت الإصدار 1ساعة و 7 دقيقة قبل الساعة 21:00UTC
ريح 2 عقدةمن اتجاهات متغيرة
درجة الحرارة 25°درجة مئوية
الرطوبة 100%
ضغط 1006 hPa
الرؤية: 9000 متر
غيوم مفككة على ارتفاع 3000 قدم

METAR: VTUU 022100Z VRB02KT 9000 BKN030 25/25 Q1006 NOSIG

زمن: 05:07 (22:07 UTC)

توقعات

تاريخ ووقت الإصدار 5ساعات و 7 دقيقة قبل الساعة 17:00UTC
التوقعات صالحة من02 الساعة 18 UTC إلى 03 الساعة 18 UTC
ريح 5 عقدة من الجنوب/الجنوب الغربي
الرؤية 10 كم أو أكثر
غيوم متفرقة على ارتفاع 3000 قدم
مؤقت
من 03 الساعة 08 UTC إلى 03 الساعة 12 UTC
ريح 15 عقدةمن اتجاهات متغيرة
الرؤية: 4500 متر
غيوم قليلة على ارتفاع 1800 قدم, مزنة ركامية.
غيوم مفككة على ارتفاع 2500 قدم
عاصفة رعدية, مطر

TAF: VTUU 021700Z 0218/0318 20005KT 9999 SCT030 TEMPO 0308/0312 VRB15KT 4500 TSRA FEW018CB BKN025

أرصاد الطقس والتوقعات من أكثر من 4000 مطار (تقارير الطقس للمطار METAR والتنبؤ بالطقس بالمطارTAF).

المحطات المتاحة هي النقط الصفراء والحمراء على الخريطة.

حرك المؤشر فوق النقطة لمعرفة اسم المحطة.

ثم انقر لمعرفة أرصاد وتوقعات الطقس.

لتغيير الخارطة: اضغط على الأزرار الخضراء مع رمز الصليب الأسود للتكبير. على الزر الأخضر مع شرطة للتصغير، أو على الأسهم الخضراء للخرائط المجاورة.


METAR-TAF: